sensor_id;sensor_type;location;lat;lon;timestamp;P1;durP1;ratioP1;P2;durP2;ratioP2
49764;SDS011;35657;51.204;-4.130;2023-10-19T00:00:32;3.50;;;1.10;;
49764;SDS011;35657;51.204;-4.130;2023-10-19T00:03:01;5.50;;;1.05;;
49764;SDS011;35657;51.204;-4.130;2023-10-19T00:05:30;4.03;;;1.10;;
49764;SDS011;35657;51.204;-4.130;2023-10-19T00:07:57;1.38;;;0.85;;
49764;SDS011;35657;51.204;-4.130;2023-10-19T00:10:31;0.85;;;0.50;;
49764;SDS011;35657;51.204;-4.130;2023-10-19T00:13:02;3.00;;;0.65;;
49764;SDS011;35657;51.204;-4.130;2023-10-19T00:15:34;0.73;;;0.63;;
49764;SDS011;35657;51.204;-4.130;2023-10-19T00:18:20;3.88;;;0.47;;
49764;SDS011;35657;51.204;-4.130;2023-10-19T00:20:48;2.00;;;0.70;;
49764;SDS011;35657;51.204;-4.130;2023-10-19T00:23:17;5.30;;;1.85;;
49764;SDS011;35657;51.204;-4.130;2023-10-19T00:25:54;2.20;;;0.80;;
49764;SDS011;35657;51.204;-4.130;2023-10-19T00:28:21;3.78;;;1.00;;
49764;SDS011;35657;51.204;-4.130;2023-10-19T00:30:52;1.95;;;1.52;;
49764;SDS011;35657;51.204;-4.130;2023-10-19T00:33:21;3.15;;;0.98;;
49764;SDS011;35657;51.204;-4.130;2023-10-19T00:35:47;2.00;;;0.75;;
49764;SDS011;35657;51.204;-4.130;2023-10-19T00:38:25;2.28;;;0.82;;
49764;SDS011;35657;51.204;-4.130;2023-10-19T00:41:00;2.25;;;0.95;;
49764;SDS011;35657;51.204;-4.130;2023-10-19T00:43:34;1.27;;;0.68;;
49764;SDS011;35657;51.204;-4.130;2023-10-19T00:46:08;1.98;;;0.57;;
49764;SDS011;35657;51.204;-4.130;2023-10-19T00:48:56;6.05;;;0.93;;
49764;SDS011;35657;51.204;-4.130;2023-10-19T00:51:28;1.35;;;0.70;;
49764;SDS011;35657;51.204;-4.130;2023-10-19T00:54:39;1.40;;;0.95;;
49764;SDS011;35657;51.204;-4.130;2023-10-19T00:56:55;1.38;;;0.90;;
49764;SDS011;35657;51.204;-4.130;2023-10-19T00:59:32;1.98;;;0.88;;
49764;SDS011;35657;51.204;-4.130;2023-10-19T01:02:19;3.42;;;0.98;;
49764;SDS011;35657;51.204;-4.130;2023-10-19T01:04:50;5.22;;;0.88;;
49764;SDS011;35657;51.204;-4.130;2023-10-19T01:07:30;6.57;;;1.23;;
49764;SDS011;35657;51.204;-4.130;2023-10-19T01:09:59;3.33;;;1.10;;
49764;SDS011;35657;51.204;-4.130;2023-10-19T01:12:29;3.55;;;1.30;;
49764;SDS011;35657;51.204;-4.130;2023-10-19T01:17:52;2.45;;;0.73;;
49764;SDS011;35657;51.204;-4.130;2023-10-19T01:20:22;2.05;;;1.20;;
49764;SDS011;35657;51.204;-4.130;2023-10-19T01:25:35;1.58;;;0.90;;
49764;SDS011;35657;51.204;-4.130;2023-10-19T01:28:12;6.07;;;1.05;;
49764;SDS011;35657;51.204;-4.130;2023-10-19T01:30:42;3.75;;;1.33;;
49764;SDS011;35657;51.204;-4.130;2023-10-19T01:33:09;5.55;;;1.50;;
49764;SDS011;35657;51.204;-4.130;2023-10-19T01:35:39;5.60;;;1.38;;
49764;SDS011;35657;51.204;-4.130;2023-10-19T01:38:26;7.82;;;1.15;;
49764;SDS011;35657;51.204;-4.130;2023-10-19T01:40:56;5.43;;;1.23;;
49764;SDS011;35657;51.204;-4.130;2023-10-19T01:43:32;5.38;;;1.55;;
49764;SDS011;35657;51.204;-4.130;2023-10-19T01:45:58;4.88;;;1.50;;
49764;SDS011;35657;51.204;-4.130;2023-10-19T01:48:36;6.80;;;1.48;;
49764;SDS011;35657;51.204;-4.130;2023-10-19T01:51:04;3.92;;;1.10;;
49764;SDS011;35657;51.204;-4.130;2023-10-19T01:53:31;3.50;;;1.38;;
49764;SDS011;35657;51.204;-4.130;2023-10-19T01:55:57;5.15;;;1.50;;
49764;SDS011;35657;51.204;-4.130;2023-10-19T01:58:26;9.07;;;1.23;;
49764;SDS011;35657;51.204;-4.130;2023-10-19T02:00:55;23.90;;;1.67;;
49764;SDS011;35657;51.204;-4.130;2023-10-19T02:03:25;8.63;;;1.70;;
49764;SDS011;35657;51.204;-4.130;2023-10-19T02:05:57;7.28;;;1.67;;
49764;SDS011;35657;51.204;-4.130;2023-10-19T02:08:24;8.18;;;1.58;;
49764;SDS011;35657;51.204;-4.130;2023-10-19T02:10:52;3.50;;;1.20;;
49764;SDS011;35657;51.204;-4.130;2023-10-19T02:13:19;6.70;;;1.35;;
49764;SDS011;35657;51.204;-4.130;2023-10-19T02:15:46;7.95;;;1.52;;
49764;SDS011;35657;51.204;-4.130;2023-10-19T02:18:12;7.80;;;1.52;;
49764;SDS011;35657;51.204;-4.130;2023-10-19T02:20:37;8.10;;;1.75;;
49764;SDS011;35657;51.204;-4.130;2023-10-19T02:23:09;5.60;;;1.38;;
49764;SDS011;35657;51.204;-4.130;2023-10-19T02:25:37;5.90;;;1.40;;
49764;SDS011;35657;51.204;-4.130;2023-10-19T02:28:03;6.95;;;2.00;;
49764;SDS011;35657;51.204;-4.130;2023-10-19T02:30:34;8.02;;;1.63;;
49764;SDS011;35657;51.204;-4.130;2023-10-19T02:33:00;9.02;;;1.60;;
49764;SDS011;35657;51.204;-4.130;2023-10-19T02:35:28;16.92;;;2.38;;
49764;SDS011;35657;51.204;-4.130;2023-10-19T02:37:53;10.60;;;2.10;;
49764;SDS011;35657;51.204;-4.130;2023-10-19T02:40:19;8.75;;;1.50;;
49764;SDS011;35657;51.204;-4.130;2023-10-19T02:42:48;9.25;;;1.75;;
49764;SDS011;35657;51.204;-4.130;2023-10-19T02:45:15;12.00;;;1.90;;
49764;SDS011;35657;51.204;-4.130;2023-10-19T02:47:45;7.63;;;1.60;;
49764;SDS011;35657;51.204;-4.130;2023-10-19T02:50:11;14.73;;;2.20;;
49764;SDS011;35657;51.204;-4.130;2023-10-19T02:52:48;9.27;;;1.55;;
49764;SDS011;35657;51.204;-4.130;2023-10-19T02:55:13;9.38;;;2.10;;
49764;SDS011;35657;51.204;-4.130;2023-10-19T02:57:42;11.80;;;2.03;;
49764;SDS011;35657;51.204;-4.130;2023-10-19T03:00:12;7.63;;;1.83;;
49764;SDS011;35657;51.204;-4.130;2023-10-19T03:02:44;6.90;;;1.80;;
49764;SDS011;35657;51.204;-4.130;2023-10-19T03:05:11;7.82;;;1.85;;
49764;SDS011;35657;51.204;-4.130;2023-10-19T03:07:43;7.00;;;1.77;;
49764;SDS011;35657;51.204;-4.130;2023-10-19T03:10:09;5.38;;;1.50;;
49764;SDS011;35657;51.204;-4.130;2023-10-19T03:12:49;7.57;;;1.40;;
49764;SDS011;35657;51.204;-4.130;2023-10-19T03:15:16;3.92;;;1.13;;
49764;SDS011;35657;51.204;-4.130;2023-10-19T03:17:45;3.47;;;1.00;;
49764;SDS011;35657;51.204;-4.130;2023-10-19T03:20:11;6.80;;;1.48;;
49764;SDS011;35657;51.204;-4.130;2023-10-19T03:22:37;1.77;;;0.90;;
49764;SDS011;35657;51.204;-4.130;2023-10-19T03:25:06;4.82;;;1.10;;
49764;SDS011;35657;51.204;-4.130;2023-10-19T03:27:51;4.35;;;1.27;;
49764;SDS011;35657;51.204;-4.130;2023-10-19T03:30:20;5.82;;;1.55;;
49764;SDS011;35657;51.204;-4.130;2023-10-19T03:32:49;6.05;;;1.15;;
49764;SDS011;35657;51.204;-4.130;2023-10-19T03:35:15;4.30;;;1.27;;
49764;SDS011;35657;51.204;-4.130;2023-10-19T03:37:41;3.80;;;1.00;;
49764;SDS011;35657;51.204;-4.130;2023-10-19T03:40:07;5.13;;;0.93;;
49764;SDS011;35657;51.204;-4.130;2023-10-19T03:42:36;4.93;;;1.10;;
49764;SDS011;35657;51.204;-4.130;2023-10-19T03:45:11;7.55;;;1.35;;
49764;SDS011;35657;51.204;-4.130;2023-10-19T03:47:40;6.45;;;1.17;;
49764;SDS011;35657;51.204;-4.130;2023-10-19T03:50:08;9.25;;;1.20;;
49764;SDS011;35657;51.204;-4.130;2023-10-19T03:52:39;2.97;;;0.95;;
49764;SDS011;35657;51.204;-4.130;2023-10-19T03:55:06;4.18;;;1.40;;
49764;SDS011;35657;51.204;-4.130;2023-10-19T03:57:36;5.75;;;0.98;;
49764;SDS011;35657;51.204;-4.130;2023-10-19T04:00:06;3.88;;;1.15;;
49764;SDS011;35657;51.204;-4.130;2023-10-19T04:02:53;5.15;;;1.10;;
49764;SDS011;35657;51.204;-4.130;2023-10-19T04:05:20;9.40;;;1.15;;
49764;SDS011;35657;51.204;-4.130;2023-10-19T04:07:48;6.68;;;1.00;;
49764;SDS011;35657;51.204;-4.130;2023-10-19T04:10:20;9.73;;;0.90;;
49764;SDS011;35657;51.204;-4.130;2023-10-19T04:13:03;5.23;;;1.30;;
49764;SDS011;35657;51.204;-4.130;2023-10-19T04:15:34;8.30;;;1.90;;
49764;SDS011;35657;51.204;-4.130;2023-10-19T04:18:01;4.78;;;1.10;;
49764;SDS011;35657;51.204;-4.130;2023-10-19T04:20:33;3.38;;;1.13;;
49764;SDS011;35657;51.204;-4.130;2023-10-19T04:23:17;5.78;;;1.55;;
49764;SDS011;35657;51.204;-4.130;2023-10-19T04:25:45;7.07;;;2.78;;
49764;SDS011;35657;51.204;-4.130;2023-10-19T04:28:12;5.25;;;1.20;;
49764;SDS011;35657;51.204;-4.130;2023-10-19T04:30:41;6.82;;;1.38;;
49764;SDS011;35657;51.204;-4.130;2023-10-19T04:33:06;6.35;;;1.17;;
49764;SDS011;35657;51.204;-4.130;2023-10-19T04:35:35;7.07;;;1.45;;
49764;SDS011;35657;51.204;-4.130;2023-10-19T04:38:03;6.20;;;1.42;;
49764;SDS011;35657;51.204;-4.130;2023-10-19T04:40:33;8.38;;;1.80;;
49764;SDS011;35657;51.204;-4.130;2023-10-19T04:42:59;9.73;;;2.78;;
49764;SDS011;35657;51.204;-4.130;2023-10-19T04:45:28;15.90;;;2.22;;
49764;SDS011;35657;51.204;-4.130;2023-10-19T04:47:54;10.32;;;1.55;;
49764;SDS011;35657;51.204;-4.130;2023-10-19T04:50:20;11.82;;;1.67;;
49764;SDS011;35657;51.204;-4.130;2023-10-19T04:52:46;14.05;;;1.75;;
49764;SDS011;35657;51.204;-4.130;2023-10-19T04:55:12;12.95;;;2.58;;
49764;SDS011;35657;51.204;-4.130;2023-10-19T04:57:38;4.65;;;1.42;;
49764;SDS011;35657;51.204;-4.130;2023-10-19T05:00:04;12.93;;;1.85;;
49764;SDS011;35657;51.204;-4.130;2023-10-19T05:02:30;8.60;;;2.05;;
49764;SDS011;35657;51.204;-4.130;2023-10-19T05:04:56;9.18;;;1.65;;
49764;SDS011;35657;51.204;-4.130;2023-10-19T05:07:22;10.85;;;1.98;;
49764;SDS011;35657;51.204;-4.130;2023-10-19T05:09:47;12.45;;;2.30;;
49764;SDS011;35657;51.204;-4.130;2023-10-19T05:12:14;5.53;;;1.83;;
49764;SDS011;35657;51.204;-4.130;2023-10-19T05:14:40;13.73;;;1.85;;
49764;SDS011;35657;51.204;-4.130;2023-10-19T05:17:07;19.77;;;2.83;;
49764;SDS011;35657;51.204;-4.130;2023-10-19T05:19:37;10.35;;;2.22;;
49764;SDS011;35657;51.204;-4.130;2023-10-19T05:22:07;14.13;;;2.92;;
49764;SDS011;35657;51.204;-4.130;2023-10-19T05:24:34;7.38;;;1.80;;
49764;SDS011;35657;51.204;-4.130;2023-10-19T05:27:00;15.93;;;1.73;;
49764;SDS011;35657;51.204;-4.130;2023-10-19T05:29:26;12.93;;;2.65;;
49764;SDS011;35657;51.204;-4.130;2023-10-19T05:31:52;22.25;;;2.78;;
49764;SDS011;35657;51.204;-4.130;2023-10-19T05:34:22;12.40;;;2.40;;
49764;SDS011;35657;51.204;-4.130;2023-10-19T05:36:48;9.15;;;2.20;;
49764;SDS011;35657;51.204;-4.130;2023-10-19T05:39:17;17.92;;;1.85;;
49764;SDS011;35657;51.204;-4.130;2023-10-19T05:41:44;14.13;;;2.92;;
49764;SDS011;35657;51.204;-4.130;2023-10-19T05:44:10;10.57;;;1.67;;
49764;SDS011;35657;51.204;-4.130;2023-10-19T05:46:36;11.32;;;2.15;;
49764;SDS011;35657;51.204;-4.130;2023-10-19T05:49:03;13.02;;;2.33;;
49764;SDS011;35657;51.204;-4.130;2023-10-19T05:51:31;13.25;;;2.13;;
49764;SDS011;35657;51.204;-4.130;2023-10-19T05:53:57;10.73;;;2.83;;
49764;SDS011;35657;51.204;-4.130;2023-10-19T05:56:30;11.10;;;2.60;;
49764;SDS011;35657;51.204;-4.130;2023-10-19T05:58:56;5.55;;;2.20;;
49764;SDS011;35657;51.204;-4.130;2023-10-19T06:01:25;8.68;;;2.83;;
49764;SDS011;35657;51.204;-4.130;2023-10-19T06:03:51;9.38;;;1.63;;
49764;SDS011;35657;51.204;-4.130;2023-10-19T06:06:18;15.88;;;2.58;;
49764;SDS011;35657;51.204;-4.130;2023-10-19T06:08:45;14.48;;;2.05;;
49764;SDS011;35657;51.204;-4.130;2023-10-19T06:11:11;13.93;;;2.67;;
49764;SDS011;35657;51.204;-4.130;2023-10-19T06:13:36;19.10;;;2.75;;
49764;SDS011;35657;51.204;-4.130;2023-10-19T06:16:02;9.77;;;2.35;;
49764;SDS011;35657;51.204;-4.130;2023-10-19T06:18:28;12.82;;;2.30;;
49764;SDS011;35657;51.204;-4.130;2023-10-19T06:20:54;17.05;;;2.63;;
49764;SDS011;35657;51.204;-4.130;2023-10-19T06:23:20;11.40;;;2.22;;
49764;SDS011;35657;51.204;-4.130;2023-10-19T06:25:46;10.73;;;3.78;;
49764;SDS011;35657;51.204;-4.130;2023-10-19T06:28:13;6.57;;;1.80;;
49764;SDS011;35657;51.204;-4.130;2023-10-19T06:30:39;11.32;;;2.17;;
49764;SDS011;35657;51.204;-4.130;2023-10-19T06:33:07;19.58;;;2.70;;
49764;SDS011;35657;51.204;-4.130;2023-10-19T06:35:33;13.30;;;2.10;;
49764;SDS011;35657;51.204;-4.130;2023-10-19T06:38:01;16.55;;;2.63;;
49764;SDS011;35657;51.204;-4.130;2023-10-19T06:40:28;5.15;;;2.67;;
49764;SDS011;35657;51.204;-4.130;2023-10-19T06:42:56;13.50;;;2.58;;
49764;SDS011;35657;51.204;-4.130;2023-10-19T06:45:23;17.98;;;2.83;;
49764;SDS011;35657;51.204;-4.130;2023-10-19T06:47:50;11.93;;;2.38;;
49764;SDS011;35657;51.204;-4.130;2023-10-19T06:50:17;8.70;;;1.65;;
49764;SDS011;35657;51.204;-4.130;2023-10-19T06:52:45;6.30;;;1.98;;
49764;SDS011;35657;51.204;-4.130;2023-10-19T06:55:12;13.10;;;2.70;;
49764;SDS011;35657;51.204;-4.130;2023-10-19T06:57:45;6.88;;;1.63;;
49764;SDS011;35657;51.204;-4.130;2023-10-19T07:00:15;10.30;;;2.67;;
49764;SDS011;35657;51.204;-4.130;2023-10-19T07:02:45;17.30;;;3.13;;
49764;SDS011;35657;51.204;-4.130;2023-10-19T07:05:16;14.25;;;2.22;;
49764;SDS011;35657;51.204;-4.130;2023-10-19T07:07:54;14.77;;;2.28;;
49764;SDS011;35657;51.204;-4.130;2023-10-19T07:10:22;18.83;;;3.22;;
49764;SDS011;35657;51.204;-4.130;2023-10-19T07:12:51;9.75;;;1.65;;
49764;SDS011;35657;51.204;-4.130;2023-10-19T07:15:19;15.75;;;5.30;;
49764;SDS011;35657;51.204;-4.130;2023-10-19T07:17:46;17.77;;;2.22;;
49764;SDS011;35657;51.204;-4.130;2023-10-19T07:20:12;14.48;;;2.33;;
49764;SDS011;35657;51.204;-4.130;2023-10-19T07:22:55;6.88;;;2.15;;
49764;SDS011;35657;51.204;-4.130;2023-10-19T07:25:21;18.75;;;3.40;;
49764;SDS011;35657;51.204;-4.130;2023-10-19T07:27:48;9.35;;;2.05;;
49764;SDS011;35657;51.204;-4.130;2023-10-19T07:30:15;7.03;;;2.00;;
49764;SDS011;35657;51.204;-4.130;2023-10-19T07:32:47;11.10;;;2.20;;
49764;SDS011;35657;51.204;-4.130;2023-10-19T07:35:25;17.42;;;3.92;;
49764;SDS011;35657;51.204;-4.130;2023-10-19T07:37:52;19.92;;;2.10;;
49764;SDS011;35657;51.204;-4.130;2023-10-19T07:40:18;13.57;;;2.47;;
49764;SDS011;35657;51.204;-4.130;2023-10-19T07:42:45;13.20;;;2.17;;
49764;SDS011;35657;51.204;-4.130;2023-10-19T07:45:11;13.98;;;2.08;;
49764;SDS011;35657;51.204;-4.130;2023-10-19T07:47:38;12.07;;;2.05;;
49764;SDS011;35657;51.204;-4.130;2023-10-19T07:50:07;9.55;;;2.80;;
49764;SDS011;35657;51.204;-4.130;2023-10-19T07:55:14;13.05;;;2.47;;
49764;SDS011;35657;51.204;-4.130;2023-10-19T07:57:42;13.73;;;2.42;;
49764;SDS011;35657;51.204;-4.130;2023-10-19T08:00:09;8.57;;;2.83;;
49764;SDS011;35657;51.204;-4.130;2023-10-19T08:02:38;13.15;;;2.47;;
49764;SDS011;35657;51.204;-4.130;2023-10-19T08:05:07;13.35;;;3.25;;
49764;SDS011;35657;51.204;-4.130;2023-10-19T08:07:33;10.75;;;2.08;;
49764;SDS011;35657;51.204;-4.130;2023-10-19T08:10:04;7.88;;;2.75;;
49764;SDS011;35657;51.204;-4.130;2023-10-19T08:12:35;12.25;;;2.70;;
49764;SDS011;35657;51.204;-4.130;2023-10-19T08:15:02;9.38;;;2.10;;
49764;SDS011;35657;51.204;-4.130;2023-10-19T08:17:29;10.45;;;1.90;;
49764;SDS011;35657;51.204;-4.130;2023-10-19T08:19:55;13.20;;;2.45;;
49764;SDS011;35657;51.204;-4.130;2023-10-19T08:22:22;15.60;;;2.03;;
49764;SDS011;35657;51.204;-4.130;2023-10-19T08:24:49;11.10;;;2.95;;
49764;SDS011;35657;51.204;-4.130;2023-10-19T08:27:15;14.73;;;2.92;;
49764;SDS011;35657;51.204;-4.130;2023-10-19T08:29:42;9.05;;;1.90;;
49764;SDS011;35657;51.204;-4.130;2023-10-19T08:32:08;6.93;;;1.95;;
49764;SDS011;35657;51.204;-4.130;2023-10-19T08:34:34;10.82;;;2.35;;
49764;SDS011;35657;51.204;-4.130;2023-10-19T08:37:01;12.00;;;2.38;;
49764;SDS011;35657;51.204;-4.130;2023-10-19T08:39:27;10.73;;;2.13;;
49764;SDS011;35657;51.204;-4.130;2023-10-19T08:41:54;6.35;;;2.50;;
49764;SDS011;35657;51.204;-4.130;2023-10-19T08:44:20;10.38;;;2.30;;
49764;SDS011;35657;51.204;-4.130;2023-10-19T08:46:46;9.88;;;2.45;;
49764;SDS011;35657;51.204;-4.130;2023-10-19T08:49:13;8.00;;;2.35;;
49764;SDS011;35657;51.204;-4.130;2023-10-19T08:51:43;16.77;;;2.97;;
49764;SDS011;35657;51.204;-4.130;2023-10-19T08:54:10;11.65;;;2.22;;
49764;SDS011;35657;51.204;-4.130;2023-10-19T08:56:38;10.10;;;3.13;;
49764;SDS011;35657;51.204;-4.130;2023-10-19T08:59:06;12.15;;;2.10;;
49764;SDS011;35657;51.204;-4.130;2023-10-19T09:01:32;12.75;;;1.90;;
49764;SDS011;35657;51.204;-4.130;2023-10-19T09:04:00;8.93;;;2.10;;
49764;SDS011;35657;51.204;-4.130;2023-10-19T09:06:26;10.75;;;1.70;;
49764;SDS011;35657;51.204;-4.130;2023-10-19T09:08:56;10.32;;;1.88;;
49764;SDS011;35657;51.204;-4.130;2023-10-19T09:11:23;12.20;;;2.10;;
49764;SDS011;35657;51.204;-4.130;2023-10-19T09:13:50;12.48;;;1.90;;
49764;SDS011;35657;51.204;-4.130;2023-10-19T09:16:17;13.63;;;2.53;;
49764;SDS011;35657;51.204;-4.130;2023-10-19T09:18:47;12.85;;;2.15;;
49764;SDS011;35657;51.204;-4.130;2023-10-19T09:21:17;6.90;;;1.25;;
49764;SDS011;35657;51.204;-4.130;2023-10-19T09:23:50;6.85;;;1.60;;
49764;SDS011;35657;51.204;-4.130;2023-10-19T09:26:17;10.77;;;2.28;;
49764;SDS011;35657;51.204;-4.130;2023-10-19T09:28:46;10.88;;;2.17;;
49764;SDS011;35657;51.204;-4.130;2023-10-19T09:31:15;4.07;;;1.35;;
49764;SDS011;35657;51.204;-4.130;2023-10-19T09:33:44;13.20;;;2.22;;
49764;SDS011;35657;51.204;-4.130;2023-10-19T09:36:11;8.98;;;2.03;;
49764;SDS011;35657;51.204;-4.130;2023-10-19T09:38:47;13.20;;;2.63;;
49764;SDS011;35657;51.204;-4.130;2023-10-19T09:41:15;8.52;;;2.20;;
49764;SDS011;35657;51.204;-4.130;2023-10-19T09:43:48;14.98;;;2.50;;
49764;SDS011;35657;51.204;-4.130;2023-10-19T09:46:22;10.52;;;2.67;;
49764;SDS011;35657;51.204;-4.130;2023-10-19T09:48:51;10.55;;;2.20;;
49764;SDS011;35657;51.204;-4.130;2023-10-19T09:51:17;16.60;;;3.42;;
49764;SDS011;35657;51.204;-4.130;2023-10-19T09:53:47;10.50;;;2.60;;
49764;SDS011;35657;51.204;-4.130;2023-10-19T09:56:20;13.82;;;2.60;;
49764;SDS011;35657;51.204;-4.130;2023-10-19T09:58:53;14.50;;;3.20;;
49764;SDS011;35657;51.204;-4.130;2023-10-19T10:01:22;12.85;;;3.83;;
49764;SDS011;35657;51.204;-4.130;2023-10-19T10:03:49;22.20;;;4.28;;
49764;SDS011;35657;51.204;-4.130;2023-10-19T10:08:53;13.80;;;2.33;;
49764;SDS011;35657;51.204;-4.130;2023-10-19T10:11:21;11.30;;;2.58;;
49764;SDS011;35657;51.204;-4.130;2023-10-19T10:13:52;17.77;;;2.53;;
49764;SDS011;35657;51.204;-4.130;2023-10-19T10:16:21;17.90;;;3.17;;
49764;SDS011;35657;51.204;-4.130;2023-10-19T10:18:53;21.50;;;3.70;;
49764;SDS011;35657;51.204;-4.130;2023-10-19T10:21:24;14.43;;;2.35;;
49764;SDS011;35657;51.204;-4.130;2023-10-19T10:23:52;12.25;;;2.45;;
49764;SDS011;35657;51.204;-4.130;2023-10-19T10:26:30;11.23;;;2.95;;
49764;SDS011;35657;51.204;-4.130;2023-10-19T10:31:45;19.48;;;3.15;;
49764;SDS011;35657;51.204;-4.130;2023-10-19T10:34:57;11.20;;;2.85;;
49764;SDS011;35657;51.204;-4.130;2023-10-19T10:37:06;14.40;;;3.33;;
49764;SDS011;35657;51.204;-4.130;2023-10-19T10:39:34;11.15;;;2.95;;
49764;SDS011;35657;51.204;-4.130;2023-10-19T10:42:05;11.80;;;2.88;;
49764;SDS011;35657;51.204;-4.130;2023-10-19T10:44:39;9.63;;;2.50;;
49764;SDS011;35657;51.204;-4.130;2023-10-19T10:47:21;13.90;;;2.97;;
49764;SDS011;35657;51.204;-4.130;2023-10-19T10:49:59;16.63;;;3.08;;
49764;SDS011;35657;51.204;-4.130;2023-10-19T10:52:35;15.60;;;2.95;;
49764;SDS011;35657;51.204;-4.130;2023-10-19T10:57:36;20.33;;;3.83;;
49764;SDS011;35657;51.204;-4.130;2023-10-19T11:00:05;21.35;;;2.85;;
49764;SDS011;35657;51.204;-4.130;2023-10-19T11:02:34;21.52;;;4.60;;
49764;SDS011;35657;51.204;-4.130;2023-10-19T11:05:07;17.20;;;4.10;;
49764;SDS011;35657;51.204;-4.130;2023-10-19T11:07:37;12.73;;;2.67;;
49764;SDS011;35657;51.204;-4.130;2023-10-19T11:10:03;20.52;;;3.17;;
49764;SDS011;35657;51.204;-4.130;2023-10-19T11:12:29;15.27;;;3.08;;
49764;SDS011;35657;51.204;-4.130;2023-10-19T11:14:56;13.55;;;4.38;;
49764;SDS011;35657;51.204;-4.130;2023-10-19T11:17:24;17.83;;;2.25;;
49764;SDS011;35657;51.204;-4.130;2023-10-19T11:19:55;14.68;;;2.60;;
49764;SDS011;35657;51.204;-4.130;2023-10-19T11:22:23;14.48;;;3.17;;
49764;SDS011;35657;51.204;-4.130;2023-10-19T11:24:54;21.52;;;2.88;;
49764;SDS011;35657;51.204;-4.130;2023-10-19T11:29:56;20.05;;;3.20;;
49764;SDS011;35657;51.204;-4.130;2023-10-19T11:32:23;10.30;;;3.33;;
49764;SDS011;35657;51.204;-4.130;2023-10-19T11:34:53;11.25;;;3.38;;
49764;SDS011;35657;51.204;-4.130;2023-10-19T11:37:19;13.82;;;3.20;;
49764;SDS011;35657;51.204;-4.130;2023-10-19T11:39:45;12.50;;;2.60;;
49764;SDS011;35657;51.204;-4.130;2023-10-19T11:42:11;12.80;;;3.38;;
49764;SDS011;35657;51.204;-4.130;2023-10-19T11:44:37;20.63;;;2.75;;
49764;SDS011;35657;51.204;-4.130;2023-10-19T11:47:04;8.77;;;2.08;;
49764;SDS011;35657;51.204;-4.130;2023-10-19T11:49:30;16.95;;;3.17;;
49764;SDS011;35657;51.204;-4.130;2023-10-19T11:51:56;13.13;;;2.70;;
49764;SDS011;35657;51.204;-4.130;2023-10-19T11:54:22;11.45;;;2.30;;
49764;SDS011;35657;51.204;-4.130;2023-10-19T11:56:48;9.13;;;2.40;;
49764;SDS011;35657;51.204;-4.130;2023-10-19T11:59:14;10.77;;;2.03;;
49764;SDS011;35657;51.204;-4.130;2023-10-19T12:01:40;12.25;;;2.10;;
49764;SDS011;35657;51.204;-4.130;2023-10-19T12:04:07;8.98;;;2.17;;
49764;SDS011;35657;51.204;-4.130;2023-10-19T12:06:34;11.60;;;2.70;;
49764;SDS011;35657;51.204;-4.130;2023-10-19T12:09:00;14.05;;;3.28;;
49764;SDS011;35657;51.204;-4.130;2023-10-19T12:11:39;17.33;;;3.67;;
49764;SDS011;35657;51.204;-4.130;2023-10-19T12:14:09;14.32;;;6.47;;
49764;SDS011;35657;51.204;-4.130;2023-10-19T12:16:39;13.02;;;4.53;;
49764;SDS011;35657;51.204;-4.130;2023-10-19T12:19:06;13.70;;;4.00;;
49764;SDS011;35657;51.204;-4.130;2023-10-19T12:21:34;14.00;;;4.28;;
49764;SDS011;35657;51.204;-4.130;2023-10-19T12:24:02;8.70;;;3.10;;
49764;SDS011;35657;51.204;-4.130;2023-10-19T12:26:29;20.55;;;4.25;;
49764;SDS011;35657;51.204;-4.130;2023-10-19T12:28:55;12.65;;;2.70;;
49764;SDS011;35657;51.204;-4.130;2023-10-19T12:31:21;12.15;;;3.28;;
49764;SDS011;35657;51.204;-4.130;2023-10-19T12:33:48;8.55;;;2.67;;
49764;SDS011;35657;51.204;-4.130;2023-10-19T12:36:14;15.60;;;2.20;;
49764;SDS011;35657;51.204;-4.130;2023-10-19T12:38:52;5.93;;;1.80;;
49764;SDS011;35657;51.204;-4.130;2023-10-19T12:41:19;6.53;;;2.08;;
49764;SDS011;35657;51.204;-4.130;2023-10-19T12:43:46;8.30;;;2.05;;
49764;SDS011;35657;51.204;-4.130;2023-10-19T12:46:12;8.85;;;1.85;;
49764;SDS011;35657;51.204;-4.130;2023-10-19T12:48:39;5.28;;;1.30;;
49764;SDS011;35657;51.204;-4.130;2023-10-19T12:51:05;5.38;;;1.77;;
49764;SDS011;35657;51.204;-4.130;2023-10-19T12:53:37;12.32;;;2.58;;
49764;SDS011;35657;51.204;-4.130;2023-10-19T12:56:06;10.30;;;2.17;;
49764;SDS011;35657;51.204;-4.130;2023-10-19T12:58:32;9.63;;;1.95;;
49764;SDS011;35657;51.204;-4.130;2023-10-19T13:00:58;15.75;;;2.03;;
49764;SDS011;35657;51.204;-4.130;2023-10-19T13:03:24;9.73;;;1.92;;
49764;SDS011;35657;51.204;-4.130;2023-10-19T13:05:56;7.15;;;1.52;;
49764;SDS011;35657;51.204;-4.130;2023-10-19T13:08:23;8.25;;;2.00;;
49764;SDS011;35657;51.204;-4.130;2023-10-19T13:10:52;5.72;;;1.52;;
49764;SDS011;35657;51.204;-4.130;2023-10-19T13:13:18;5.95;;;1.40;;
49764;SDS011;35657;51.204;-4.130;2023-10-19T13:15:47;5.30;;;1.25;;
49764;SDS011;35657;51.204;-4.130;2023-10-19T13:18:13;11.82;;;1.92;;
49764;SDS011;35657;51.204;-4.130;2023-10-19T13:20:45;10.73;;;3.25;;
49764;SDS011;35657;51.204;-4.130;2023-10-19T13:23:13;7.15;;;1.63;;
49764;SDS011;35657;51.204;-4.130;2023-10-19T13:25:42;3.95;;;1.70;;
49764;SDS011;35657;51.204;-4.130;2023-10-19T13:28:14;4.65;;;1.25;;
49764;SDS011;35657;51.204;-4.130;2023-10-19T13:30:40;6.78;;;1.65;;
49764;SDS011;35657;51.204;-4.130;2023-10-19T13:33:08;7.30;;;1.63;;
49764;SDS011;35657;51.204;-4.130;2023-10-19T13:35:35;10.23;;;1.42;;
49764;SDS011;35657;51.204;-4.130;2023-10-19T13:38:03;6.43;;;1.60;;
49764;SDS011;35657;51.204;-4.130;2023-10-19T13:40:30;8.48;;;1.65;;
49764;SDS011;35657;51.204;-4.130;2023-10-19T13:42:56;7.18;;;1.20;;
49764;SDS011;35657;51.204;-4.130;2023-10-19T13:45:23;11.65;;;3.75;;
49764;SDS011;35657;51.204;-4.130;2023-10-19T13:47:49;10.52;;;1.77;;
49764;SDS011;35657;51.204;-4.130;2023-10-19T13:50:14;9.20;;;1.70;;
49764;SDS011;35657;51.204;-4.130;2023-10-19T13:52:40;7.63;;;1.85;;
49764;SDS011;35657;51.204;-4.130;2023-10-19T13:55:06;4.70;;;1.70;;
49764;SDS011;35657;51.204;-4.130;2023-10-19T13:57:33;14.15;;;2.58;;
49764;SDS011;35657;51.204;-4.130;2023-10-19T13:59:59;8.52;;;1.60;;
49764;SDS011;35657;51.204;-4.130;2023-10-19T14:02:26;12.20;;;2.60;;
49764;SDS011;35657;51.204;-4.130;2023-10-19T14:04:51;8.80;;;2.08;;
49764;SDS011;35657;51.204;-4.130;2023-10-19T14:07:18;6.15;;;1.77;;
49764;SDS011;35657;51.204;-4.130;2023-10-19T14:09:45;7.97;;;2.30;;
49764;SDS011;35657;51.204;-4.130;2023-10-19T14:12:11;9.55;;;1.90;;
49764;SDS011;35657;51.204;-4.130;2023-10-19T14:14:36;11.38;;;1.75;;
49764;SDS011;35657;51.204;-4.130;2023-10-19T14:17:02;9.05;;;2.80;;
49764;SDS011;35657;51.204;-4.130;2023-10-19T14:19:28;9.50;;;2.70;;
49764;SDS011;35657;51.204;-4.130;2023-10-19T14:21:53;15.23;;;3.55;;
49764;SDS011;35657;51.204;-4.130;2023-10-19T14:24:19;11.02;;;2.80;;
49764;SDS011;35657;51.204;-4.130;2023-10-19T14:26:46;9.15;;;1.83;;
49764;SDS011;35657;51.204;-4.130;2023-10-19T14:29:12;9.90;;;2.38;;
49764;SDS011;35657;51.204;-4.130;2023-10-19T14:31:38;12.52;;;2.67;;
49764;SDS011;35657;51.204;-4.130;2023-10-19T14:34:05;8.55;;;2.20;;
49764;SDS011;35657;51.204;-4.130;2023-10-19T14:36:33;14.98;;;3.20;;
49764;SDS011;35657;51.204;-4.130;2023-10-19T14:38:58;15.45;;;2.17;;
49764;SDS011;35657;51.204;-4.130;2023-10-19T14:41:24;9.80;;;1.95;;
49764;SDS011;35657;51.204;-4.130;2023-10-19T14:43:50;9.50;;;1.48;;
49764;SDS011;35657;51.204;-4.130;2023-10-19T14:46:16;11.15;;;1.90;;
49764;SDS011;35657;51.204;-4.130;2023-10-19T14:48:42;9.10;;;2.45;;
49764;SDS011;35657;51.204;-4.130;2023-10-19T14:51:08;6.38;;;1.52;;
49764;SDS011;35657;51.204;-4.130;2023-10-19T14:53:34;8.40;;;1.77;;
49764;SDS011;35657;51.204;-4.130;2023-10-19T14:56:00;10.23;;;2.15;;